Time;durP1;ratioP1;P1;durP2;ratioP2;P2;SDS_P1;SDS_P2;PMS_P1;PMS_P2;Temp;Humidity;BMP_temperature;BMP_pressure;BME280_temperature;BME280_humidity;BME280_pressure;Samples;Min_cycle;Max_cycle;Signal;HPM_P1;HPM_P2
2022/06/11 00:00:13;;;;;;;8.98;7.15;;;19.20;99.90;;;;;;4959194;28;20066;-43
2022/06/11 00:02:39;;;;;;;13.25;7.40;;;19.30;99.90;;;;;;4959130;28;20047;-44
2022/06/11 00:05:06;;;;;;;13.32;9.57;;;19.30;99.90;;;;;;4975132;28;20143;-44
2022/06/11 00:07:33;;;;;;;12.27;10.13;;;19.20;99.90;;;;;;4975245;28;20043;-45
2022/06/11 00:09:59;;;;;;;11.57;10.40;;;19.30;99.90;;;;;;4975149;28;20442;-45
2022/06/11 00:12:26;;;;;;;11.00;8.15;;;19.20;99.90;;;;;;4975155;28;20027;-44
2022/06/11 00:14:53;;;;;;;9.32;7.97;;;19.10;99.90;;;;;;4974931;28;20052;-47
2022/06/11 00:17:21;;;;;;;11.80;6.70;;;19.20;99.90;;;;;;4975089;28;20471;-43
2022/06/11 00:19:47;;;;;;;7.65;6.85;;;19.20;99.90;;;;;;4974904;28;20446;-42
2022/06/11 00:22:15;;;;;;;7.22;6.35;;;19.20;99.90;;;;;;4974965;28;20546;-44
2022/06/11 00:24:42;;;;;;;9.00;6.55;;;19.20;99.90;;;;;;4975014;28;20027;-44
2022/06/11 00:27:09;;;;;;;9.20;7.82;;;19.10;99.90;;;;;;4988653;28;20042;-43
2022/06/11 00:29:37;;;;;;;11.10;7.55;;;19.10;99.90;;;;;;4996499;28;20117;-42
2022/06/11 00:32:04;;;;;;;11.80;8.07;;;19.00;99.90;;;;;;5000032;28;20045;-42
2022/06/11 00:34:30;;;;;;;10.40;8.00;;;19.00;99.90;;;;;;4996062;28;20058;-44
2022/06/11 00:36:56;;;;;;;13.23;9.20;;;19.00;99.90;;;;;;4996102;28;20065;-46
2022/06/11 00:39:26;;;;;;;13.70;9.25;;;19.00;99.90;;;;;;4996159;28;20474;-42
2022/06/11 00:41:57;;;;;;;16.77;9.25;;;19.00;99.90;;;;;;5010528;28;20054;-45
2022/06/11 00:44:24;;;;;;;14.52;9.32;;;18.90;99.90;;;;;;4996277;28;20062;-47
2022/06/11 00:47:06;;;;;;;16.25;7.80;;;19.00;99.90;;;;;;4996090;28;20030;-43
2022/06/11 00:49:41;;;;;;;14.30;9.07;;;19.00;99.90;;;;;;4996091;28;20505;-46
2022/06/11 00:52:31;;;;;;;9.48;8.57;;;18.90;99.90;;;;;;4996175;28;20026;-42
2022/06/11 00:55:32;;;;;;;12.35;9.27;;;18.80;99.90;;;;;;4996117;28;20022;-41
2022/06/11 00:58:04;;;;;;;11.68;9.05;;;18.50;99.90;;;;;;4996014;28;20045;-44
2022/06/11 01:00:40;;;;;;;13.20;9.52;;;18.80;99.90;;;;;;4996068;28;20049;-43
2022/06/11 01:03:11;;;;;;;14.27;9.30;;;18.70;99.90;;;;;;4995929;28;20034;-43
2022/06/11 01:05:41;;;;;;;11.57;8.73;;;18.70;99.90;;;;;;4995939;28;20031;-45
2022/06/11 01:08:22;;;;;;;11.18;9.18;;;18.70;99.90;;;;;;4996061;28;20032;-46
2022/06/11 01:11:15;;;;;;;14.50;10.07;;;18.70;99.90;;;;;;4995911;28;20425;-46
2022/06/11 01:14:02;;;;;;;14.30;9.25;;;18.60;99.90;;;;;;4995546;28;20037;-46
2022/06/11 01:16:56;;;;;;;16.30;9.65;;;18.60;99.90;;;;;;4996025;28;20053;-41
2022/06/11 01:19:57;;;;;;;8.75;7.28;;;18.70;99.90;;;;;;4995488;28;20034;-43
2022/06/11 01:22:40;;;;;;;11.70;8.93;;;18.60;99.90;;;;;;4954474;29;20399;-44
2022/06/11 01:25:27;;;;;;;11.77;8.25;;;18.60;99.90;;;;;;4954531;29;20031;-44
2022/06/11 01:28:23;;;;;;;10.93;7.40;;;18.60;99.90;;;;;;4954629;29;20042;-41
2022/06/11 01:31:04;;;;;;;11.43;8.38;;;18.50;99.90;;;;;;4954473;28;20118;-47
2022/06/11 01:33:44;;;;;;;11.55;8.63;;;18.50;99.90;;;;;;4953604;29;20086;-45
2022/06/11 01:36:21;;;;;;;12.40;8.43;;;18.50;99.90;;;;;;4954235;29;20032;-42
2022/06/11 01:38:54;;;;;;;10.45;7.05;;;18.40;99.90;;;;;;4954176;29;20118;-43
2022/06/11 01:41:31;;;;;;;9.88;7.97;;;;;;;;;;4954148;29;20043;-43
2022/06/11 01:44:00;;;;;;;10.60;8.23;;;;;;;;;;4953690;28;20043;-45
2022/06/11 01:46:35;;;;;;;13.32;8.82;;;18.30;99.90;;;;;;4954161;29;20360;-45
2022/06/11 01:49:04;;;;;;;12.55;9.38;;;18.60;99.90;;;;;;4954164;29;20031;-44
2022/06/11 01:51:44;;;;;;;14.95;9.52;;;18.50;99.90;;;;;;4954056;29;20042;-43
2022/06/11 01:54:19;;;;;;;16.10;8.80;;;18.60;99.90;;;;;;4953940;28;20027;-41
2022/06/11 01:57:06;;;;;;;14.07;9.00;;;18.40;99.90;;;;;;4954237;29;20035;-44
2022/06/11 01:59:42;;;;;;;11.07;8.05;;;;;;;;;;4979627;28;20034;-42
2022/06/11 02:02:31;;;;;;;12.68;8.68;;;18.50;99.90;;;;;;5009047;28;20097;-42
2022/06/11 02:05:30;;;;;;;12.75;9.05;;;;;;;;;;4994625;28;20548;-44
2022/06/11 02:08:14;;;;;;;11.02;8.90;;;;;;;;;;4953682;29;20039;-43
2022/06/11 02:10:48;;;;;;;13.40;9.07;;;18.30;99.90;;;;;;4953878;28;20094;-41
2022/06/11 02:13:18;;;;;;;9.98;8.43;;;;;;;;;;4953467;28;20040;-46
2022/06/11 02:15:53;;;;;;;13.57;10.13;;;18.40;99.90;;;;;;4953620;29;20062;-44
2022/06/11 02:18:22;;;;;;;14.95;9.25;;;18.40;99.90;;;;;;4953476;29;20035;-44
2022/06/11 02:21:13;;;;;;;10.20;8.43;;;18.40;99.90;;;;;;4953399;29;20101;-42
2022/06/11 02:23:39;;;;;;;12.15;9.90;;;18.50;99.90;;;;;;4953518;29;20045;-43
2022/06/11 02:26:20;;;;;;;12.85;9.00;;;18.50;99.90;;;;;;4953564;28;20447;-46
2022/06/11 02:28:48;;;;;;;12.30;8.82;;;18.60;99.90;;;;;;4952786;29;20093;-45
2022/06/11 02:31:19;;;;;;;11.68;9.38;;;18.50;99.90;;;;;;4953238;28;20070;-43
2022/06/11 02:33:46;;;;;;;9.52;8.52;;;18.50;99.90;;;;;;4937273;29;20099;-45
2022/06/11 02:36:12;;;;;;;12.75;9.30;;;18.40;99.90;;;;;;4953460;29;20043;-42
2022/06/11 02:38:38;;;;;;;14.45;9.65;;;18.60;99.90;;;;;;4953247;28;20435;-42
2022/06/11 02:41:09;;;;;;;11.02;9.88;;;18.40;99.90;;;;;;4915167;29;20107;-45
2022/06/11 02:43:35;;;;;;;14.02;9.98;;;18.50;99.90;;;;;;4946025;28;20046;-45
2022/06/11 02:46:40;;;;;;;16.55;9.77;;;18.40;99.90;;;;;;4972567;28;20058;-43
2022/06/11 02:48:48;;;;;;;12.98;10.43;;;18.50;99.90;;;;;;4972619;28;20575;-45
2022/06/11 02:51:13;;;;;;;11.98;9.88;;;18.40;99.90;;;;;;4956251;28;20050;-40
2022/06/11 02:53:39;;;;;;;16.60;10.05;;;18.40;99.90;;;;;;4972374;28;20035;-43
2022/06/11 02:56:05;;;;;;;13.10;10.40;;;18.40;99.90;;;;;;4955504;28;20083;-41
2022/06/11 02:58:31;;;;;;;14.93;10.45;;;18.40;99.90;;;;;;4972329;28;20558;-46
2022/06/11 03:00:57;;;;;;;13.07;10.02;;;18.60;99.90;;;;;;4972111;28;20050;-44
2022/06/11 03:03:23;;;;;;;13.40;10.10;;;18.30;99.90;;;;;;4972238;28;20035;-43
2022/06/11 03:05:49;;;;;;;15.35;10.60;;;18.30;99.90;;;;;;4972289;28;20053;-45
2022/06/11 03:08:14;;;;;;;13.55;10.55;;;18.20;99.90;;;;;;4972415;28;20117;-45
2022/06/11 03:10:40;;;;;;;13.23;10.13;;;18.20;99.90;;;;;;4972112;28;20149;-45
2022/06/11 03:13:07;;;;;;;11.30;10.10;;;18.20;99.90;;;;;;4992391;28;20081;-46
2022/06/11 03:15:33;;;;;;;22.30;12.02;;;18.20;99.90;;;;;;4993651;28;20038;-43
2022/06/11 03:17:59;;;;;;;16.60;10.80;;;18.20;99.90;;;;;;4993805;28;20039;-43
2022/06/11 03:20:28;;;;;;;14.65;10.82;;;18.20;99.90;;;;;;4993900;28;20041;-46
2022/06/11 03:22:55;;;;;;;15.98;10.15;;;18.20;99.90;;;;;;4993722;28;20054;-42
2022/06/11 03:25:21;;;;;;;12.88;10.77;;;18.30;99.90;;;;;;4993938;28;20037;-42
2022/06/11 03:27:47;;;;;;;15.85;10.57;;;18.30;99.90;;;;;;4975451;28;20050;-44
2022/06/11 03:30:15;;;;;;;14.98;10.25;;;18.30;99.90;;;;;;4993887;28;20034;-46
2022/06/11 03:32:41;;;;;;;13.35;10.50;;;18.30;99.90;;;;;;5007835;28;20074;-46
2022/06/11 03:35:07;;;;;;;16.88;11.18;;;18.30;99.90;;;;;;4993990;28;20108;-43
2022/06/11 03:37:34;;;;;;;13.73;10.75;;;18.30;99.90;;;;;;5008112;28;20116;-43
2022/06/11 03:40:01;;;;;;;12.60;11.30;;;18.30;99.90;;;;;;4993482;28;20042;-41
2022/06/11 03:42:27;;;;;;;12.73;10.90;;;18.30;99.90;;;;;;4993468;28;20121;-44
2022/06/11 03:44:53;;;;;;;16.25;11.35;;;18.40;99.90;;;;;;4993872;28;20117;-45
2022/06/11 03:47:18;;;;;;;14.45;10.77;;;18.40;99.90;;;;;;4993371;28;20045;-46
2022/06/11 03:49:45;;;;;;;13.98;11.35;;;18.40;99.90;;;;;;4958802;28;20129;-42
2022/06/11 03:52:11;;;;;;;12.70;11.20;;;18.50;99.90;;;;;;4993932;28;20481;-45
2022/06/11 03:54:38;;;;;;;12.23;10.88;;;18.50;99.90;;;;;;5007673;28;20109;-43
2022/06/11 03:57:05;;;;;;;13.90;11.07;;;18.50;99.90;;;;;;4993600;28;20038;-45
2022/06/11 03:59:31;;;;;;;16.13;11.63;;;18.60;99.90;;;;;;5007922;28;20042;-44
2022/06/11 04:01:57;;;;;;;11.98;10.77;;;18.60;99.90;;;;;;5000370;28;20088;-43
2022/06/11 04:04:22;;;;;;;18.67;11.18;;;18.60;99.90;;;;;;4994781;28;20065;-45
2022/06/11 04:06:56;;;;;;;15.27;10.52;;;18.60;99.90;;;;;;5010656;28;20032;-46
2022/06/11 04:09:26;;;;;;;13.50;11.48;;;18.60;99.90;;;;;;5016544;28;20061;-47
2022/06/11 04:11:52;;;;;;;13.63;10.63;;;18.60;99.90;;;;;;4998051;28;20048;-44
2022/06/11 04:14:18;;;;;;;15.55;11.32;;;18.60;99.90;;;;;;5016194;28;20553;-43
2022/06/11 04:16:47;;;;;;;15.75;10.90;;;18.70;99.90;;;;;;5006032;28;20122;-45
2022/06/11 04:19:21;;;;;;;12.05;10.85;;;18.70;99.90;;;;;;4996750;28;20034;-43
2022/06/11 04:21:48;;;;;;;14.15;11.73;;;18.70;99.90;;;;;;4996334;28;20049;-44
2022/06/11 04:24:15;;;;;;;15.80;10.85;;;18.70;99.90;;;;;;4996541;28;20061;-44
2022/06/11 04:26:45;;;;;;;14.48;10.98;;;18.70;99.90;;;;;;4996930;28;20038;-42
2022/06/11 04:29:13;;;;;;;12.20;10.27;;;18.80;99.90;;;;;;4996538;28;20038;-46
2022/06/11 04:31:40;;;;;;;13.45;10.10;;;18.80;99.90;;;;;;4995455;28;20186;-46
2022/06/11 04:34:06;;;;;;;15.15;10.00;;;18.90;99.90;;;;;;4996277;28;20545;-42
2022/06/11 04:36:35;;;;;;;14.85;10.75;;;19.00;99.90;;;;;;4996465;28;20445;-46
2022/06/11 04:39:01;;;;;;;14.27;10.60;;;19.00;99.90;;;;;;4996093;28;20026;-45
2022/06/11 04:41:28;;;;;;;11.35;10.20;;;19.00;99.90;;;;;;5013474;28;20112;-42
2022/06/11 04:43:54;;;;;;;13.13;10.77;;;19.20;99.90;;;;;;4964936;28;20046;-42
2022/06/11 04:46:20;;;;;;;14.00;11.23;;;19.20;99.90;;;;;;5013589;28;20053;-44
2022/06/11 04:48:46;;;;;;;12.68;10.82;;;19.20;99.90;;;;;;4996928;28;20038;-43
2022/06/11 04:51:13;;;;;;;12.82;11.15;;;19.30;99.90;;;;;;5013543;28;20041;-46
2022/06/11 04:53:39;;;;;;;13.10;10.23;;;19.40;99.90;;;;;;5012653;28;20512;-45
2022/06/11 04:56:05;;;;;;;15.00;11.32;;;19.40;99.90;;;;;;5013281;28;20069;-42
2022/06/11 04:58:31;;;;;;;17.30;11.30;;;19.40;99.90;;;;;;4964954;28;20133;-44
2022/06/11 05:00:57;;;;;;;12.88;10.18;;;19.50;99.90;;;;;;4964258;28;20191;-42
2022/06/11 05:03:23;;;;;;;11.68;10.52;;;19.60;99.90;;;;;;5013390;28;20041;-44
2022/06/11 05:05:49;;;;;;;13.60;10.35;;;19.60;99.90;;;;;;5012241;28;20036;-44
2022/06/11 05:08:15;;;;;;;13.88;10.60;;;19.80;99.90;;;;;;5013234;28;20033;-45
2022/06/11 05:10:42;;;;;;;11.88;9.65;;;19.80;99.90;;;;;;4996665;28;20208;-42
2022/06/11 05:13:10;;;;;;;11.75;10.55;;;19.90;99.90;;;;;;4999088;28;20042;-44
2022/06/11 05:15:46;;;;;;;11.85;10.65;;;20.00;99.90;;;;;;4995495;28;20049;-41
2022/06/11 05:18:13;;;;;;;11.43;10.00;;;20.10;99.90;;;;;;4994873;28;20422;-42
2022/06/11 05:20:39;;;;;;;10.73;9.00;;;20.20;99.90;;;;;;4994976;28;20034;-44
2022/06/11 05:23:05;;;;;;;10.15;8.23;;;20.20;99.90;;;;;;5009760;28;20038;-43
2022/06/11 05:25:32;;;;;;;11.05;8.25;;;20.20;99.90;;;;;;5009839;28;20056;-47
2022/06/11 05:27:59;;;;;;;10.73;9.45;;;20.30;99.90;;;;;;4995155;28;20394;-41
2022/06/11 05:30:29;;;;;;;11.07;9.77;;;20.30;99.90;;;;;;4995423;28;20078;-41
2022/06/11 05:32:55;;;;;;;12.77;9.15;;;20.30;99.90;;;;;;4998556;28;20096;-44
2022/06/11 05:35:24;;;;;;;11.88;8.65;;;20.30;99.90;;;;;;4993685;28;20047;-42
2022/06/11 05:37:53;;;;;;;13.35;9.63;;;20.40;99.90;;;;;;5003760;28;20033;-44
2022/06/11 05:40:22;;;;;;;10.55;9.05;;;20.60;99.90;;;;;;5005245;28;20060;-41
2022/06/11 05:42:49;;;;;;;11.98;8.80;;;19.10;99.90;;;;;;5004692;28;20038;-43
2022/06/11 05:45:24;;;;;;;10.15;9.15;;;20.70;99.90;;;;;;5003187;28;20037;-42
2022/06/11 05:47:52;;;;;;;10.23;8.50;;;20.80;99.90;;;;;;4975511;28;20038;-44
2022/06/11 05:50:24;;;;;;;9.77;8.00;;;20.90;99.90;;;;;;4975581;28;20098;-43
2022/06/11 05:52:53;;;;;;;12.13;7.88;;;20.90;99.90;;;;;;4984793;28;20025;-42
2022/06/11 05:55:22;;;;;;;9.07;8.18;;;20.70;99.90;;;;;;5009302;28;20034;-44
2022/06/11 05:57:50;;;;;;;9.95;7.78;;;20.60;99.90;;;;;;4994932;28;20042;-42
2022/06/11 06:00:18;;;;;;;9.25;8.35;;;20.60;99.90;;;;;;4994086;28;20038;-43
2022/06/11 06:02:45;;;;;;;9.70;8.60;;;20.50;99.90;;;;;;4976194;28;20136;-41
2022/06/11 06:05:14;;;;;;;12.45;8.88;;;20.40;99.90;;;;;;4996732;28;20125;-46
2022/06/11 06:07:40;;;;;;;9.50;8.60;;;20.40;99.90;;;;;;4988498;28;20040;-43
2022/06/11 06:10:07;;;;;;;11.80;9.35;;;20.40;99.90;;;;;;5010956;28;20038;-43
2022/06/11 06:12:34;;;;;;;11.50;8.93;;;20.50;99.90;;;;;;4993667;28;20042;-45
2022/06/11 06:15:09;;;;;;;12.85;9.55;;;20.40;99.90;;;;;;4979363;28;20063;-45
2022/06/11 06:17:38;;;;;;;12.02;8.98;;;20.30;99.90;;;;;;4972403;28;20518;-48
2022/06/11 06:20:06;;;;;;;10.35;8.80;;;20.30;99.90;;;;;;4983491;28;20042;-42
2022/06/11 06:22:32;;;;;;;10.65;9.10;;;20.50;99.90;;;;;;4973118;28;20159;-50
2022/06/11 06:24:58;;;;;;;10.50;8.82;;;20.50;99.90;;;;;;4971547;28;20118;-47
2022/06/11 06:27:24;;;;;;;12.98;8.60;;;20.60;99.90;;;;;;4972926;28;20038;-46
2022/06/11 06:29:51;;;;;;;12.02;9.65;;;20.70;99.90;;;;;;4958940;28;20030;-51
2022/06/11 06:32:17;;;;;;;8.68;7.72;;;20.80;99.90;;;;;;4962344;28;20166;-47
2022/06/11 06:34:43;;;;;;;10.30;9.25;;;20.80;99.90;;;;;;4923321;28;20125;-44
2022/06/11 06:37:09;;;;;;;10.98;9.23;;;20.80;99.90;;;;;;4923627;28;20065;-46
2022/06/11 06:39:35;;;;;;;12.55;9.55;;;20.70;99.90;;;;;;4923301;28;20041;-44
2022/06/11 06:42:01;;;;;;;11.07;9.88;;;20.80;99.90;;;;;;4971394;28;20049;-44
2022/06/11 06:44:27;;;;;;;11.20;9.45;;;20.70;99.90;;;;;;4955720;28;20422;-43
2022/06/11 06:46:53;;;;;;;9.52;8.63;;;20.80;99.90;;;;;;4942582;28;20049;-46
2022/06/11 06:49:19;;;;;;;10.95;9.35;;;20.80;99.90;;;;;;4990700;28;20084;-45
2022/06/11 06:51:45;;;;;;;13.18;10.30;;;20.70;99.90;;;;;;4992715;28;20434;-46
2022/06/11 06:54:11;;;;;;;12.10;10.27;;;20.70;99.90;;;;;;5007185;28;20394;-47
2022/06/11 06:56:36;;;;;;;13.45;10.57;;;20.60;99.90;;;;;;4992948;28;20026;-46
2022/06/11 06:59:04;;;;;;;16.17;10.10;;;20.60;99.90;;;;;;4992926;28;20089;-44
2022/06/11 07:01:31;;;;;;;14.35;10.63;;;20.70;99.90;;;;;;4995408;28;20027;-43
2022/06/11 07:03:57;;;;;;;13.45;10.52;;;20.70;99.90;;;;;;5007782;28;20101;-47
2022/06/11 07:06:24;;;;;;;10.25;9.23;;;20.80;99.90;;;;;;4990992;28;20450;-43
2022/06/11 07:08:54;;;;;;;13.38;10.20;;;20.90;99.90;;;;;;4991987;28;20026;-47
2022/06/11 07:11:20;;;;;;;11.52;9.35;;;21.10;99.90;;;;;;4993061;28;20459;-45
2022/06/11 07:13:47;;;;;;;13.40;9.85;;;21.20;99.90;;;;;;4992857;28;20385;-46
2022/06/11 07:16:21;;;;;;;9.23;8.32;;;21.30;99.90;;;;;;4992556;28;20548;-45
2022/06/11 07:18:55;;;;;;;11.43;8.80;;;21.30;99.90;;;;;;5001736;28;20097;-47
2022/06/11 07:21:36;;;;;;;10.85;9.45;;;21.30;99.90;;;;;;4992558;28;20039;-44
2022/06/11 07:24:06;;;;;;;10.18;9.18;;;21.40;99.90;;;;;;4992386;28;20438;-44
2022/06/11 07:26:41;;;;;;;12.75;8.77;;;21.40;99.90;;;;;;5003003;28;20031;-46
2022/06/11 07:29:37;;;;;;;11.75;9.30;;;21.50;99.90;;;;;;4989100;28;20521;-44
2022/06/11 07:32:06;;;;;;;10.52;8.88;;;;;;;;;;4992408;28;20510;-47
2022/06/11 07:34:34;;;;;;;10.85;9.05;;;21.80;99.90;;;;;;5006637;28;20101;-47
2022/06/11 07:37:00;;;;;;;9.27;8.27;;;22.10;99.90;;;;;;4990990;28;20041;-51
2022/06/11 07:39:26;;;;;;;10.73;8.60;;;22.20;99.90;;;;;;4991582;28;20490;-50
2022/06/11 07:41:52;;;;;;;10.48;9.38;;;22.20;99.90;;;;;;4980520;28;20042;-43
2022/06/11 07:44:18;;;;;;;10.18;8.35;;;22.10;99.90;;;;;;5010149;28;20049;-46
2022/06/11 07:46:43;;;;;;;11.55;8.77;;;22.00;99.90;;;;;;4977594;28;20038;-47
2022/06/11 07:49:09;;;;;;;14.25;11.50;;;22.10;99.90;;;;;;4996206;28;20029;-45
2022/06/11 07:51:35;;;;;;;13.80;9.15;;;22.30;99.90;;;;;;4996184;28;20030;-45
2022/06/11 07:54:00;;;;;;;11.13;9.15;;;22.50;99.90;;;;;;4996082;28;20383;-46
2022/06/11 07:56:26;;;;;;;10.70;9.40;;;22.60;99.90;;;;;;4993855;28;20050;-45
2022/06/11 07:58:55;;;;;;;9.63;8.52;;;22.60;99.90;;;;;;4996055;28;20034;-46
2022/06/11 08:01:21;;;;;;;10.90;9.18;;;22.60;99.90;;;;;;4995554;28;20437;-44
2022/06/11 08:03:47;;;;;;;9.98;8.52;;;;;;;;;;4995757;28;20137;-46
2022/06/11 08:06:13;;;;;;;10.75;9.65;;;22.90;99.90;;;;;;4995954;28;20367;-45
2022/06/11 08:08:39;;;;;;;10.90;9.80;;;;;;;;;;4995697;28;20033;-46
2022/06/11 08:11:06;;;;;;;11.82;10.30;;;;;;;;;;4995506;28;20030;-45
2022/06/11 08:13:33;;;;;;;11.52;10.35;;;;;;;;;;4995750;28;20111;-48
2022/06/11 08:16:01;;;;;;;12.20;10.35;;;23.00;99.90;;;;;;4995545;28;20027;-47
2022/06/11 08:18:28;;;;;;;12.30;10.55;;;23.10;99.90;;;;;;4993688;28;20034;-45
2022/06/11 08:20:53;;;;;;;9.95;8.80;;;24.00;99.90;;;;;;4995316;28;20038;-49
2022/06/11 08:23:22;;;;;;;14.02;10.63;;;22.60;99.90;;;;;;4995663;28;20034;-47
2022/06/11 08:25:49;;;;;;;11.05;9.95;;;22.60;99.90;;;;;;4995517;28;20454;-47
2022/06/11 08:28:17;;;;;;;14.23;10.73;;;;;;;;;;4995447;28;20030;-48
2022/06/11 08:30:44;;;;;;;13.27;10.27;;;23.00;99.90;;;;;;4995390;28;20038;-47
2022/06/11 08:33:10;;;;;;;12.60;10.43;;;23.00;99.90;;;;;;4993189;28;20050;-48
2022/06/11 08:35:36;;;;;;;13.20;10.95;;;22.80;99.90;;;;;;4995200;28;20038;-47
2022/06/11 08:38:03;;;;;;;11.88;10.68;;;23.00;99.90;;;;;;4995367;28;20485;-46
2022/06/11 08:40:41;;;;;;;11.52;10.32;;;22.80;99.90;;;;;;4995422;28;20041;-48
2022/06/11 08:43:26;;;;;;;15.20;9.77;;;22.70;99.90;;;;;;4993220;28;20043;-48
2022/06/11 08:46:02;;;;;;;14.13;11.98;;;22.80;99.90;;;;;;4993117;28;20034;-49
2022/06/11 08:48:37;;;;;;;14.38;11.48;;;22.90;99.90;;;;;;4995010;28;20067;-47
2022/06/11 08:51:05;;;;;;;12.57;11.27;;;23.00;99.90;;;;;;4994632;28;20106;-46
2022/06/11 08:53:33;;;;;;;13.07;11.13;;;23.10;99.90;;;;;;4993998;28;20064;-45
2022/06/11 08:55:59;;;;;;;12.18;10.93;;;;;;;;;;4994796;28;20030;-49
2022/06/11 08:58:25;;;;;;;12.60;10.38;;;23.40;99.90;;;;;;4995163;28;20417;-47
2022/06/11 09:01:24;;;;;;;11.75;10.50;;;23.40;99.90;;;;;;5008853;28;20096;-45
2022/06/11 09:04:13;;;;;;;14.77;11.60;;;23.40;99.90;;;;;;4996436;28;20379;-45
2022/06/11 09:07:00;;;;;;;12.88;10.55;;;23.40;99.90;;;;;;4974053;28;20107;-47
2022/06/11 09:09:49;;;;;;;12.70;11.18;;;23.50;99.90;;;;;;4974213;28;20027;-48
2022/06/11 09:12:23;;;;;;;13.18;10.45;;;23.60;99.90;;;;;;4974242;28;20067;-49
2022/06/11 09:15:08;;;;;;;14.10;11.70;;;23.90;99.90;;;;;;4974014;28;20027;-48
2022/06/11 09:18:00;;;;;;;11.13;10.02;;;23.80;99.90;;;;;;4973524;28;20066;-48
2022/06/11 09:20:56;;;;;;;13.82;10.65;;;23.90;99.90;;;;;;4968135;28;20092;-45
2022/06/11 09:23:40;;;;;;;11.70;10.48;;;23.90;99.90;;;;;;4972485;28;20050;-50
2022/06/11 09:26:23;;;;;;;11.35;10.25;;;24.70;99.90;;;;;;4957714;28;20039;-48
2022/06/11 09:28:49;;;;;;;10.50;9.32;;;;;;;;;;4973274;28;20085;-48
2022/06/11 09:31:21;;;;;;;10.70;9.60;;;;;;;;;;4973459;28;20181;-48
2022/06/11 09:33:47;;;;;;;;;;;;;;;;;;4974154;28;20133;-46
2022/06/11 09:36:30;;;;;;;11.10;9.85;;;25.00;99.90;;;;;;4973874;28;20029;-47
2022/06/11 09:39:08;;;;;;;10.60;9.50;;;;;;;;;;4973706;28;20407;-47
2022/06/11 09:41:36;;;;;;;12.05;9.15;;;25.90;99.90;;;;;;4973423;28;20039;-46
2022/06/11 09:44:20;;;;;;;16.95;12.63;;;26.00;99.90;;;;;;4987621;28;20054;-45
2022/06/11 09:46:59;;;;;;;9.43;8.15;;;26.30;99.90;;;;;;4995225;28;20101;-46
2022/06/11 09:49:36;;;;;;;12.55;9.63;;;25.90;99.90;;;;;;4995464;28;20455;-46
2022/06/11 09:52:34;;;;;;;10.73;8.98;;;25.80;99.90;;;;;;4994458;28;20038;-46
2022/06/11 09:55:14;;;;;;;10.68;9.68;;;25.60;99.90;;;;;;4993854;28;20027;-45
2022/06/11 09:57:45;;;;;;;10.43;9.15;;;25.40;99.90;;;;;;4998622;28;20022;-46
2022/06/11 10:00:19;;;;;;;9.52;8.52;;;25.20;99.90;;;;;;5003644;28;20022;-47
2022/06/11 10:05:51;;;;;;;9.18;8.25;;;26.20;99.90;;;;;;4998758;28;20049;-49
2022/06/11 10:08:21;;;;;;;11.98;9.57;;;;;;;;;;4994407;28;20046;-46
2022/06/11 10:10:49;;;;;;;11.00;8.88;;;26.50;99.90;;;;;;4993367;28;20041;-48
2022/06/11 10:13:44;;;;;;;10.77;8.23;;;26.40;99.90;;;;;;5001953;28;20470;-47
2022/06/11 10:16:40;;;;;;;10.50;8.07;;;26.40;99.90;;;;;;5004094;28;20096;-45
2022/06/11 10:19:37;;;;;;;8.73;7.40;;;26.30;99.90;;;;;;4998613;28;20039;-46
2022/06/11 10:22:37;;;;;;;11.40;8.15;;;26.10;99.90;;;;;;4994754;28;20048;-49
2022/06/11 10:25:19;;;;;;;10.98;9.45;;;26.20;99.90;;;;;;4992179;28;20043;-48
2022/06/11 10:28:11;;;;;;;8.70;7.90;;;25.90;99.90;;;;;;5011392;28;20419;-52
2022/06/11 10:30:57;;;;;;;8.88;7.95;;;25.80;99.90;;;;;;4999689;28;20018;-47
2022/06/11 10:33:37;;;;;;;9.15;8.25;;;25.60;99.90;;;;;;5010491;28;20057;-45
2022/06/11 10:36:13;;;;;;;13.60;7.75;;;25.70;99.90;;;;;;4990151;28;20030;-47
2022/06/11 10:39:19;;;;;;;8.95;8.05;;;25.70;99.90;;;;;;4992227;28;20027;-46
2022/06/11 10:42:04;;;;;;;9.07;8.25;;;25.40;99.90;;;;;;4992426;28;20492;-46
2022/06/11 10:44:35;;;;;;;8.73;7.28;;;26.30;99.90;;;;;;4992465;28;20030;-46
2022/06/11 10:47:12;;;;;;;8.45;7.65;;;26.80;99.90;;;;;;4991753;28;20061;-48
2022/06/11 10:49:39;;;;;;;8.27;7.47;;;26.70;99.90;;;;;;4995881;28;20034;-47
2022/06/11 10:52:29;;;;;;;10.77;7.07;;;26.40;99.90;;;;;;4992561;28;20070;-44
2022/06/11 10:54:55;;;;;;;9.20;7.32;;;26.20;99.90;;;;;;4993431;28;20049;-44
2022/06/11 10:57:25;;;;;;;10.82;8.00;;;26.40;99.90;;;;;;5008357;28;20038;-46
2022/06/11 11:00:24;;;;;;;9.98;7.50;;;26.40;99.90;;;;;;4994061;28;20034;-45
2022/06/11 11:03:17;;;;;;;12.38;7.47;;;26.70;99.90;;;;;;4993426;28;20038;-46
2022/06/11 11:05:59;;;;;;;8.45;6.75;;;27.00;99.90;;;;;;4993831;28;20037;-45
2022/06/11 11:08:26;;;;;;;7.55;6.18;;;26.90;99.90;;;;;;4996720;28;20029;-45
2022/06/11 11:10:57;;;;;;;7.43;6.35;;;26.50;99.90;;;;;;4995796;28;20042;-45
2022/06/11 11:13:29;;;;;;;7.38;6.63;;;26.60;99.90;;;;;;4993318;28;20026;-47
2022/06/11 11:15:59;;;;;;;7.05;6.45;;;26.80;99.90;;;;;;5004072;28;20493;-48
2022/06/11 11:18:33;;;;;;;8.88;6.07;;;26.70;99.90;;;;;;4997003;28;20034;-48
2022/06/11 11:20:59;;;;;;;7.00;6.10;;;26.60;99.90;;;;;;5012509;28;20034;-47
2022/06/11 11:23:41;;;;;;;7.97;6.45;;;26.40;99.90;;;;;;5006143;28;20097;-45
2022/06/11 11:26:16;;;;;;;7.93;6.80;;;26.50;99.90;;;;;;5000835;28;20030;-47
2022/06/11 11:28:54;;;;;;;7.22;6.38;;;27.00;99.90;;;;;;5000440;28;20037;-46
2022/06/11 11:31:23;;;;;;;13.10;6.70;;;;;;;;;;5000002;28;20168;-46
2022/06/11 11:34:16;;;;;;;7.97;6.35;;;28.10;99.90;;;;;;5008325;28;20038;-46
2022/06/11 11:36:43;;;;;;;7.78;6.70;;;28.40;99.90;;;;;;5017535;28;20083;-47
2022/06/11 11:39:20;;;;;;;6.50;5.90;;;28.30;99.90;;;;;;5008305;28;20417;-47
2022/06/11 11:42:05;;;;;;;7.05;6.35;;;28.20;99.90;;;;;;5013824;28;20445;-46
2022/06/11 11:44:39;;;;;;;7.28;6.55;;;28.00;99.90;;;;;;5008956;28;20054;-47
2022/06/11 11:47:15;;;;;;;9.25;6.85;;;28.40;99.90;;;;;;5000331;28;20042;-47
2022/06/11 11:49:46;;;;;;;7.57;5.88;;;28.60;99.90;;;;;;5013643;28;20417;-47
2022/06/11 11:52:18;;;;;;;6.63;5.53;;;28.50;99.90;;;;;;5014094;28;20125;-47
2022/06/11 11:55:25;;;;;;;8.07;6.43;;;28.40;99.90;;;;;;5013967;28;20029;-46
2022/06/11 11:58:06;;;;;;;7.05;6.35;;;28.20;99.90;;;;;;5018752;28;20462;-46
2022/06/11 12:00:58;;;;;;;7.72;5.63;;;27.80;99.90;;;;;;5013045;28;20030;-47
2022/06/11 12:03:38;;;;;;;7.18;6.07;;;27.70;99.90;;;;;;5003522;28;20050;-48
2022/06/11 12:06:05;;;;;;;7.18;6.30;;;27.90;99.90;;;;;;5013493;28;20032;-47
2022/06/11 12:08:38;;;;;;;6.40;5.70;;;28.20;99.90;;;;;;4995062;28;20039;-47
2022/06/11 12:11:05;;;;;;;7.47;6.60;;;28.10;99.90;;;;;;5004822;28;20034;-47
2022/06/11 12:13:42;;;;;;;8.80;6.28;;;27.60;99.90;;;;;;5007768;28;20084;-46
2022/06/11 12:16:32;;;;;;;8.13;7.28;;;27.40;99.90;;;;;;4998153;28;20034;-49
2022/06/11 12:19:11;;;;;;;6.72;6.05;;;27.30;99.90;;;;;;4977142;28;20068;-47
2022/06/11 12:21:42;;;;;;;8.93;6.45;;;28.30;99.90;;;;;;4996933;28;20122;-49
2022/06/11 12:24:18;;;;;;;6.72;6.13;;;28.80;99.90;;;;;;4995667;28;20065;-49
2022/06/11 12:26:47;;;;;;;6.45;5.80;;;28.50;99.90;;;;;;4997628;28;20116;-48
2022/06/11 12:29:39;;;;;;;10.38;6.15;;;28.50;99.90;;;;;;4997038;28;20125;-46
2022/06/11 12:32:20;;;;;;;7.00;5.07;;;28.40;99.90;;;;;;4993736;28;20038;-48
2022/06/11 12:34:47;;;;;;;7.13;6.38;;;28.40;99.90;;;;;;4996430;28;20493;-47
2022/06/11 12:37:21;;;;;;;5.85;5.25;;;28.70;99.90;;;;;;4996001;28;20033;-47
2022/06/11 12:40:38;;;;;;;6.15;5.38;;;28.50;99.90;;;;;;4994597;28;20025;-47
2022/06/11 12:43:04;;;;;;;9.27;5.78;;;28.40;99.90;;;;;;4954246;28;20054;-47
2022/06/11 12:45:43;;;;;;;6.00;5.40;;;28.20;99.90;;;;;;4981955;28;20038;-47
2022/06/11 12:48:38;;;;;;;6.32;5.70;;;28.20;99.90;;;;;;4987733;28;20080;-48
2022/06/11 12:51:13;;;;;;;6.18;5.20;;;;;;;;;;4991563;28;20045;-47
2022/06/11 12:53:40;;;;;;;7.25;5.68;;;;;;;;;;4989968;28;20053;-49
2022/06/11 12:56:20;;;;;;;6.38;3.88;;;29.30;99.90;;;;;;4991879;28;20026;-45
2022/06/11 12:58:58;;;;;;;5.47;4.97;;;29.00;99.90;;;;;;4991608;28;20097;-45
2022/06/11 13:01:31;;;;;;;6.82;5.60;;;29.00;99.90;;;;;;4991307;28;20041;-44
2022/06/11 13:04:15;;;;;;;6.03;5.43;;;29.30;99.90;;;;;;4991498;28;20084;-44
2022/06/11 13:06:44;;;;;;;5.78;5.22;;;;;;;;;;4990785;28;20046;-45
2022/06/11 13:09:19;;;;;;;10.73;5.70;;;;;;;;;;4990536;28;20070;-45
2022/06/11 13:12:05;;;;;;;6.47;4.65;;;29.20;99.90;;;;;;4991659;28;20121;-44
2022/06/11 13:14:46;;;;;;;5.25;4.75;;;29.00;99.90;;;;;;4986213;28;20041;-44